Time;durP1;ratioP1;P1;durP2;ratioP2;P2;SDS_P1;SDS_P2;PMS_P1;PMS_P2;Temp;Humidity;BMP_temperature;BMP_pressure;BME280_temperature;BME280_humidity;BME280_pressure;Samples;Min_cycle;Max_cycle;Signal;HPM_P1;HPM_P2
2022/12/02 00:02:19;;;;;;;16.23;6.90;;;;;;;;;;6267688;22;20404;-92
2022/12/02 00:04:44;;;;;;;20.17;7.17;;;;;;;;;;6239667;22;20000;-92
2022/12/02 00:07:18;;;;;;;16.85;7.07;;;;;;;;;;6238358;22;20020;-92
2022/12/02 00:09:43;;;;;;;15.80;5.85;;;;;;;;;;6239552;22;20278;-93
2022/12/02 00:12:19;;;;;;;15.90;6.85;;;;;;;;;;6264584;22;20505;-92
2022/12/02 00:14:44;;;;;;;17.02;5.90;;;;;;;;;;6237619;22;20042;-92
2022/12/02 00:17:10;;;;;;;16.52;6.32;;;;;;;;;;6239247;22;19995;-92
2022/12/02 00:19:35;;;;;;;18.58;6.30;;;;;;;;;;6239489;22;20000;-91
2022/12/02 00:22:00;;;;;;;19.52;6.93;;;;;;;;;;6240385;22;20049;-91
2022/12/02 00:24:25;;;;;;;19.90;6.93;;;;;;;;;;6241091;22;20057;-92
2022/12/02 00:26:51;;;;;;;20.45;6.90;;;;;;;;;;6244211;22;20039;-93
2022/12/02 00:29:16;;;;;;;22.80;6.93;;;;;;;;;;6269945;22;20059;-92
2022/12/02 00:31:41;;;;;;;19.58;6.80;;;;;;;;;;6240276;22;20517;-92
2022/12/02 00:34:07;;;;;;;17.85;5.97;;;;;;;;;;6241642;22;19995;-92
2022/12/02 00:36:32;;;;;;;15.25;5.38;;;;;;;;;;6267944;22;20000;-91
2022/12/02 00:38:57;;;;;;;12.43;5.05;;;;;;;;;;6241895;22;20504;-91
2022/12/02 00:41:23;;;;;;;15.10;5.10;;;;;;;;;;6268783;22;20565;-92
2022/12/02 00:46:33;;;;;;;15.43;4.63;;;;;;;;;;6268805;22;20119;-92
2022/12/02 00:49:05;;;;;;;12.25;4.15;;;;;;;;;;6240047;22;20003;-91
2022/12/02 00:51:30;;;;;;;13.25;4.75;;;;;;;;;;6239251;22;20029;-91
2022/12/02 00:53:56;;;;;;;12.15;4.50;;;;;;;;;;6236251;22;20038;-93
2022/12/02 00:56:21;;;;;;;13.45;4.57;;;;;;;;;;6265885;22;20004;-91
2022/12/02 00:58:46;;;;;;;11.27;3.95;;;;;;;;;;6243993;22;20008;-92
2022/12/02 01:01:12;;;;;;;11.35;3.80;;;;;;;;;;6243902;22;20349;-92
2022/12/02 01:03:37;;;;;;;11.75;3.67;;;;;;;;;;6271138;22;20019;-93
2022/12/02 01:06:02;;;;;;;11.07;3.97;;;;;;;;;;6243314;22;20097;-92
2022/12/02 01:08:28;;;;;;;10.48;3.63;;;;;;;;;;6271222;22;20094;-92
2022/12/02 01:10:54;;;;;;;10.65;3.75;;;;;;;;;;6271439;22;20039;-92
2022/12/02 01:13:19;;;;;;;11.52;3.83;;;;;;;;;;6243991;22;20007;-92
2022/12/02 01:15:44;;;;;;;12.20;4.32;;;;;;;;;;6268299;22;20015;-92
2022/12/02 01:18:09;;;;;;;11.38;4.50;;;;;;;;;;6243345;22;20012;-91
2022/12/02 01:20:38;;;;;;;10.30;3.92;;;;;;;;;;6244089;22;20015;-92
2022/12/02 01:23:03;;;;;;;11.05;4.20;;;;;;;;;;6243389;22;20010;-93
2022/12/02 01:25:30;;;;;;;12.88;4.38;;;;;;;;;;6240676;22;20024;-92
2022/12/02 01:27:55;;;;;;;11.68;4.32;;;;;;;;;;6240678;22;20333;-91
2022/12/02 01:30:21;;;;;;;12.73;4.75;;;;;;;;;;6266269;22;20072;-91
2022/12/02 01:32:46;;;;;;;13.60;4.53;;;;;;;;;;6240494;22;20073;-91
2022/12/02 01:35:11;;;;;;;12.13;4.07;;;;;;;;;;6268657;22;20375;-91
2022/12/02 01:37:36;;;;;;;11.07;4.10;;;;;;;;;;6241005;22;20331;-91
2022/12/02 01:40:05;;;;;;;11.27;3.80;;;;;;;;;;6240709;22;20032;-91
2022/12/02 01:42:31;;;;;;;12.13;4.00;;;;;;;;;;6241423;22;20012;-91
2022/12/02 01:44:56;;;;;;;12.88;4.22;;;;;;;;;;6268236;22;20452;-92
2022/12/02 01:47:21;;;;;;;13.90;5.03;;;;;;;;;;6265965;22;20019;-92
2022/12/02 01:49:47;;;;;;;28.00;7.32;;;;;;;;;;6240962;22;20443;-91
2022/12/02 01:52:12;;;;;;;30.17;7.68;;;;;;;;;;6241452;22;20023;-92
2022/12/02 01:54:39;;;;;;;17.30;6.65;;;;;;;;;;6240297;22;20783;-91
2022/12/02 01:57:06;;;;;;;19.83;7.43;;;;;;;;;;6267932;22;20004;-92
2022/12/02 01:59:31;;;;;;;17.60;6.88;;;;;;;;;;6239402;22;20418;-91
2022/12/02 02:01:56;;;;;;;16.95;6.78;;;;;;;;;;6265203;22;20011;-91
2022/12/02 02:04:21;;;;;;;18.77;6.87;;;;;;;;;;6240491;22;20008;-92
2022/12/02 02:06:47;;;;;;;18.52;7.05;;;;;;;;;;6239911;22;20253;-91
2022/12/02 02:09:12;;;;;;;18.05;7.32;;;;;;;;;;6266674;22;20007;-92
2022/12/02 02:11:39;;;;;;;19.35;6.93;;;;;;;;;;6240721;22;19998;-92
2022/12/02 02:14:05;;;;;;;16.55;6.47;;;;;;;;;;6266665;22;20003;-92
2022/12/02 02:16:31;;;;;;;17.05;6.07;;;;;;;;;;6240379;22;20031;-92
2022/12/02 02:18:56;;;;;;;13.27;4.45;;;;;;;;;;6268054;22;20003;-92
2022/12/02 02:21:25;;;;;;;16.40;4.82;;;;;;;;;;6240527;22;20007;-90
2022/12/02 02:23:50;;;;;;;11.60;4.10;;;;;;;;;;6265040;22;20015;-90
2022/12/02 02:26:16;;;;;;;13.65;4.13;;;;;;;;;;6265867;22;20069;-90
2022/12/02 02:28:41;;;;;;;12.02;4.18;;;;;;;;;;6266497;22;20035;-90
2022/12/02 02:31:07;;;;;;;14.55;4.68;;;;;;;;;;6265531;22;20508;-90
2022/12/02 02:33:32;;;;;;;15.48;4.28;;;;;;;;;;6264875;22;20007;-90
2022/12/02 02:35:58;;;;;;;11.15;3.80;;;;;;;;;;6239917;22;20022;-90
2022/12/02 02:38:25;;;;;;;13.05;4.20;;;;;;;;;;6243047;22;20012;-90
2022/12/02 02:40:51;;;;;;;14.02;4.70;;;;;;;;;;6240350;22;20012;-90
2022/12/02 02:43:19;;;;;;;14.75;4.93;;;;;;;;;;6265294;22;20046;-91
2022/12/02 02:45:44;;;;;;;13.25;4.40;;;;;;;;;;6240249;22;20091;-91
2022/12/02 02:48:11;;;;;;;16.38;4.50;;;;;;;;;;6267537;22;20680;-91
2022/12/02 02:50:38;;;;;;;12.57;4.10;;;;;;;;;;6241849;22;20027;-90
2022/12/02 02:53:04;;;;;;;14.13;4.18;;;;;;;;;;6242415;22;20008;-90
2022/12/02 02:55:30;;;;;;;13.77;4.38;;;;;;;;;;6269209;22;20053;-91
2022/12/02 02:57:55;;;;;;;13.45;4.18;;;;;;;;;;6264193;22;20101;-91
2022/12/02 03:03:07;;;;;;;;;;;;;;;;;;;;;
2022/12/02 03:05:35;;;;;;;17.10;4.38;;;;;;;;;;6294197;22;20015;-93
2022/12/02 03:08:01;;;;;;;14.52;4.30;;;;;;;;;;6274761;22;20030;-93
2022/12/02 03:10:26;;;;;;;13.80;4.18;;;;;;;;;;6304113;22;20408;-94
2022/12/02 03:12:55;;;;;;;13.00;4.03;;;;;;;;;;6278054;22;20006;-92
2022/12/02 03:15:21;;;;;;;12.25;4.50;;;;;;;;;;6303749;22;20068;-93
2022/12/02 03:17:49;;;;;;;11.60;4.18;;;;;;;;;;6275916;22;20056;-94
2022/12/02 03:20:16;;;;;;;14.20;4.40;;;;;;;;;;6277327;22;20003;-94
2022/12/02 03:22:42;;;;;;;13.43;4.20;;;;;;;;;;6275991;22;20015;-94
2022/12/02 03:25:08;;;;;;;14.13;5.05;;;;;;;;;;6276281;22;20025;-93
2022/12/02 03:27:34;;;;;;;13.00;4.25;;;;;;;;;;6294100;22;20007;-93
2022/12/02 03:29:59;;;;;;;12.30;4.00;;;;;;;;;;6301742;22;20006;-94
2022/12/02 03:32:25;;;;;;;13.52;4.28;;;;;;;;;;6300437;22;20424;-93
2022/12/02 03:34:50;;;;;;;12.82;4.18;;;;;;;;;;6300632;22;20086;-93
2022/12/02 03:37:17;;;;;;;12.00;4.10;;;;;;;;;;6301693;22;20468;-94
2022/12/02 03:39:42;;;;;;;11.50;4.03;;;;;;;;;;6299174;22;20007;-93
2022/12/02 03:42:08;;;;;;;13.27;4.43;;;;;;;;;;6299740;22;20011;-94
2022/12/02 03:44:35;;;;;;;10.98;4.13;;;;;;;;;;6299876;22;20007;-93
2022/12/02 03:47:04;;;;;;;14.93;5.05;;;;;;;;;;6301550;22;20061;-93
2022/12/02 03:49:32;;;;;;;12.95;4.60;;;;;;;;;;6301962;22;20002;-93
2022/12/02 03:52:01;;;;;;;13.50;5.13;;;;;;;;;;6300422;22;20003;-93
2022/12/02 03:54:26;;;;;;;27.10;6.82;;;;;;;;;;6301111;22;19999;-93
2022/12/02 03:57:02;;;;;;;28.02;6.60;;;;;;;;;;6304069;22;20013;-93
2022/12/02 03:59:27;;;;;;;196.02;16.77;;;;;;;;;;6304527;22;20014;-92
2022/12/02 04:01:55;;;;;;;70.38;9.20;;;;;;;;;;6303596;22;20011;-94
2022/12/02 04:04:29;;;;;;;100.53;9.90;;;;;;;;;;6303134;22;20102;-93
2022/12/02 04:07:01;;;;;;;207.25;15.93;;;;;;;;;;6303421;22;20050;-93
2022/12/02 04:09:29;;;;;;;286.95;22.63;;;;;;;;;;6303560;22;20037;-93
2022/12/02 04:11:54;;;;;;;168.10;14.23;;;;;;;;;;6304853;22;19991;-92
2022/12/02 04:14:32;;;;;;;;;;;;;;;;;;;;;
2022/12/02 04:16:57;;;;;;;206.27;20.30;;;;;;;;;;6296944;22;20103;-93
2022/12/02 04:19:25;;;;;;;274.85;24.33;;;;;;;;;;6301141;22;20455;-93
2022/12/02 04:21:56;;;;;;;264.33;21.95;;;;;;;;;;6302658;22;20017;-94
2022/12/02 04:24:21;;;;;;;167.70;13.05;;;;;;;;;;6301445;22;20098;-93
2022/12/02 04:26:49;;;;;;;276.77;18.40;;;;;;;;;;6301761;22;20036;-93
2022/12/02 04:29:16;;;;;;;306.00;19.52;;;;;;;;;;6303187;22;20006;-94
2022/12/02 04:31:47;;;;;;;195.18;16.23;;;;;;;;;;6301734;22;20044;-93
2022/12/02 04:34:13;;;;;;;290.05;23.48;;;;;;;;;;6301718;22;20003;-92
2022/12/02 04:36:38;;;;;;;329.73;27.30;;;;;;;;;;6302512;22;20579;-93
2022/12/02 04:39:19;;;;;;;340.13;24.05;;;;;;;;;;6300881;22;20014;-93
2022/12/02 04:41:47;;;;;;;407.33;30.67;;;;;;;;;;6276052;22;20007;-94
2022/12/02 04:44:16;;;;;;;308.60;27.00;;;;;;;;;;6299561;22;20042;-93
2022/12/02 04:46:41;;;;;;;313.80;29.58;;;;;;;;;;6301331;22;20014;-93
2022/12/02 04:49:13;;;;;;;319.13;26.00;;;;;;;;;;6301201;22;20019;-93
2022/12/02 04:51:38;;;;;;;246.52;20.38;;;;;;;;;;6302731;22;20052;-92
2022/12/02 04:54:06;;;;;;;182.52;15.10;;;;;;;;;;6301751;22;20086;-94
2022/12/02 04:56:31;;;;;;;89.50;10.85;;;;;;;;;;6301171;22;20434;-93
2022/12/02 04:58:59;;;;;;;18.42;6.10;;;;;;;;;;6303104;22;20344;-90
2022/12/02 05:01:25;;;;;;;18.10;6.25;;;;;;;;;;6303009;22;20011;-94
2022/12/02 05:03:58;;;;;;;17.83;6.07;;;;;;;;;;6294046;22;20077;-90
2022/12/02 05:06:24;;;;;;;18.83;7.05;;;;;;;;;;6278513;22;20015;-92
2022/12/02 05:09:01;;;;;;;16.92;5.95;;;;;;;;;;6277501;22;20097;-93
2022/12/02 05:11:28;;;;;;;16.60;5.65;;;;;;;;;;6276639;22;19999;-93
2022/12/02 05:14:03;;;;;;;16.13;6.18;;;;;;;;;;6278032;22;19999;-92
2022/12/02 05:16:29;;;;;;;17.05;6.18;;;;;;;;;;6277544;22;20007;-92
2022/12/02 05:18:54;;;;;;;16.13;6.32;;;;;;;;;;6277266;22;20007;-92
2022/12/02 05:21:19;;;;;;;15.23;5.40;;;;;;;;;;6278417;22;20018;-92
2022/12/02 05:23:47;;;;;;;18.70;6.63;;;;;;;;;;6278211;22;20335;-91
2022/12/02 05:26:13;;;;;;;17.27;5.65;;;;;;;;;;6278121;22;20022;-92
2022/12/02 05:28:41;;;;;;;17.90;5.80;;;;;;;;;;6303725;22;20004;-93
2022/12/02 05:31:14;;;;;;;14.48;4.95;;;;;;;;;;6275896;22;20014;-94
2022/12/02 05:33:39;;;;;;;17.40;6.20;;;;;;;;;;6275889;22;19999;-94
2022/12/02 05:36:06;;;;;;;15.80;5.45;;;;;;;;;;6276073;22;20064;-94
2022/12/02 05:38:31;;;;;;;17.50;5.85;;;;;;;;;;6275397;22;20463;-93
2022/12/02 05:41:02;;;;;;;15.65;5.95;;;;;;;;;;6275471;22;20011;-93
2022/12/02 05:43:28;;;;;;;15.57;5.43;;;;;;;;;;6275171;22;20007;-94
2022/12/02 05:45:56;;;;;;;18.00;5.80;;;;;;;;;;6275193;22;20117;-92
2022/12/02 05:48:33;;;;;;;19.85;6.40;;;;;;;;;;6302809;22;20754;-95
2022/12/02 05:50:59;;;;;;;15.27;5.75;;;;;;;;;;6275447;22;20003;-91
2022/12/02 05:53:32;;;;;;;15.82;5.82;;;;;;;;;;6275037;22;20086;-91
2022/12/02 05:56:00;;;;;;;;;;;;;;;;;;6274245;22;20007;-91
2022/12/02 06:01:17;;;;;;;17.83;6.07;;;;;;;;;;6302932;22;20249;-92
2022/12/02 06:03:48;;;;;;;14.90;5.65;;;;;;;;;;6280928;22;20023;-91
2022/12/02 06:06:15;;;;;;;19.02;6.43;;;;;;;;;;6302504;22;20007;-91
2022/12/02 06:08:40;;;;;;;16.73;5.95;;;;;;;;;;6300310;22;20018;-91
2022/12/02 06:11:27;;;;;;;16.73;6.28;;;;;;;;;;6301158;22;20000;-92
2022/12/02 06:13:55;;;;;;;16.05;5.82;;;;;;;;;;6301942;22;20030;-91
2022/12/02 06:16:26;;;;;;;17.67;6.30;;;;;;;;;;6301306;22;20002;-91
2022/12/02 06:22:09;;;;;;;17.73;6.55;;;;;;;;;;6303236;22;20003;-91
2022/12/02 06:24:40;;;;;;;15.95;6.50;;;;;;;;;;6300519;22;20046;-91
2022/12/02 06:27:11;;;;;;;15.95;6.25;;;;;;;;;;6301156;22;20003;-92
2022/12/02 06:30:21;;;;;;;23.27;7.20;;;;;;;;;;6302624;22;19999;-94
2022/12/02 06:33:15;;;;;;;17.15;6.63;;;;;;;;;;6303432;22;20010;-92
2022/12/02 06:36:04;;;;;;;18.17;7.25;;;;;;;;;;6177481;23;20067;-92
2022/12/02 06:38:31;;;;;;;19.08;6.72;;;;;;;;;;6165494;23;20016;-92
2022/12/02 06:41:26;;;;;;;18.23;6.72;;;;;;;;;;6152654;23;20017;-92
2022/12/02 06:47:29;;;;;;;16.95;6.40;;;;;;;;;;6182598;23;20075;-92
2022/12/02 06:49:55;;;;;;;15.93;5.57;;;;;;;;;;6154628;23;20395;-92
2022/12/02 06:52:30;;;;;;;16.98;6.75;;;;;;;;;;6156587;23;20001;-91
2022/12/02 06:54:57;;;;;;;17.10;5.93;;;;;;;;;;6152979;23;20044;-92
2022/12/02 06:57:30;;;;;;;17.40;6.32;;;;;;;;;;6152049;23;20347;-92
2022/12/02 06:59:56;;;;;;;14.40;5.43;;;;;;;;;;6149101;23;20058;-91
2022/12/02 07:02:25;;;;;;;15.43;6.18;;;;;;;;;;6172407;23;20012;-91
2022/12/02 07:04:54;;;;;;;15.93;6.55;;;;;;;;;;6147464;23;20096;-91
2022/12/02 07:07:30;;;;;;;18.20;6.53;;;;;;;;;;6149256;23;20035;-91
2022/12/02 07:10:20;;;;;;;17.38;6.75;;;;;;;;;;6150663;23;20028;-93
2022/12/02 07:12:50;;;;;;;15.23;6.20;;;;;;;;;;6237444;22;20006;-92
2022/12/02 07:15:46;;;;;;;16.10;6.55;;;;;;;;;;6305457;22;20091;-92
2022/12/02 07:18:19;;;;;;;16.52;5.78;;;;;;;;;;6296521;22;20105;-91
2022/12/02 07:20:48;;;;;;;17.38;6.05;;;;;;;;;;6330990;22;20346;-92
2022/12/02 07:23:27;;;;;;;20.85;6.18;;;;;;;;;;6303742;22;20007;-92
2022/12/02 07:26:08;;;;;;;16.92;6.53;;;;;;;;;;6303423;22;20014;-93
2022/12/02 07:28:34;;;;;;;21.42;6.90;;;;;;;;;;6302105;22;20047;-93
2022/12/02 07:31:09;;;;;;;16.42;6.18;;;;;;;;;;6332830;22;19995;-91
2022/12/02 07:33:40;;;;;;;15.35;5.75;;;;;;;;;;6307900;22;20007;-94
2022/12/02 07:36:14;;;;;;;16.23;5.82;;;;;;;;;;6306647;22;20688;-92
2022/12/02 07:38:48;;;;;;;17.38;6.40;;;;;;;;;;6306968;22;19994;-92
2022/12/02 07:41:18;;;;;;;15.98;6.03;;;;;;;;;;6304976;22;20007;-92
2022/12/02 07:43:43;;;;;;;18.23;6.30;;;;;;;;;;6308491;22;20065;-92
2022/12/02 07:46:08;;;;;;;16.63;6.32;;;;;;;;;;6309132;22;20015;-92
2022/12/02 07:48:34;;;;;;;15.30;6.13;;;;;;;;;;6309720;22;20010;-91
2022/12/02 07:51:00;;;;;;;16.88;6.15;;;;;;;;;;6311462;22;20007;-93
2022/12/02 07:53:25;;;;;;;20.08;6.32;;;;;;;;;;6311395;22;20053;-92
2022/12/02 07:55:51;;;;;;;17.42;5.78;;;;;;;;;;6310707;22;20562;-91
2022/12/02 07:58:16;;;;;;;107.90;11.05;;;;;;;;;;6310917;22;20013;-91
2022/12/02 08:00:41;;;;;;;17.23;6.90;;;;;;;;;;6310347;22;20006;-92
2022/12/02 08:03:06;;;;;;;17.48;6.55;;;;;;;;;;6310172;22;20019;-91
2022/12/02 08:05:32;;;;;;;20.13;6.80;;;;;;;;;;6310034;22;20006;-92
2022/12/02 08:07:57;;;;;;;21.30;7.45;;;;;;;;;;6310735;22;20087;-92
2022/12/02 08:10:22;;;;;;;19.00;7.82;;;;;;;;;;6310982;22;19995;-91
2022/12/02 08:12:48;;;;;;;22.25;8.20;;;;;;;;;;6309738;22;20038;-92
2022/12/02 08:15:19;;;;;;;20.20;7.35;;;;;;;;;;6311287;22;20010;-92
2022/12/02 08:17:44;;;;;;;22.00;8.35;;;;;;;;;;6310875;22;19999;-92
2022/12/02 08:20:14;;;;;;;23.33;8.90;;;;;;;;;;6311226;22;20007;-91
2022/12/02 08:22:39;;;;;;;25.35;9.20;;;;;;;;;;6310422;22;20753;-92
2022/12/02 08:25:17;;;;;;;22.08;8.02;;;;;;;;;;6311068;22;20006;-92
2022/12/02 08:27:42;;;;;;;22.45;8.65;;;;;;;;;;6310456;22;20014;-92
2022/12/02 08:30:08;;;;;;;24.75;8.73;;;;;;;;;;6338648;22;20011;-93
2022/12/02 08:32:33;;;;;;;19.83;8.02;;;;;;;;;;6309902;22;20385;-92
2022/12/02 08:34:59;;;;;;;21.23;8.10;;;;;;;;;;6337687;22;20034;-92
2022/12/02 08:37:27;;;;;;;20.92;8.23;;;;;;;;;;6309763;22;20044;-92
2022/12/02 08:39:55;;;;;;;20.75;8.27;;;;;;;;;;6310527;22;20049;-91
2022/12/02 08:42:26;;;;;;;20.08;8.00;;;;;;;;;;6299565;22;20002;-92
2022/12/02 08:44:51;;;;;;;19.60;7.57;;;;;;;;;;6306587;22;20324;-92
2022/12/02 08:47:20;;;;;;;20.63;6.88;;;;;;;;;;6307293;22;20082;-92
2022/12/02 08:49:51;;;;;;;20.48;7.72;;;;;;;;;;6307131;22;20014;-91
2022/12/02 08:52:19;;;;;;;15.18;6.68;;;;;;;;;;6307770;22;20002;-91
2022/12/02 08:54:47;;;;;;;17.55;6.30;;;;;;;;;;6307487;22;20018;-93
2022/12/02 08:57:16;;;;;;;16.88;5.88;;;;;;;;;;6306085;22;20019;-92
2022/12/02 08:59:49;;;;;;;16.35;6.00;;;;;;;;;;6334204;22;19995;-91
2022/12/02 09:02:19;;;;;;;16.30;5.82;;;;;;;;;;6305561;22;20086;-92
2022/12/02 09:04:47;;;;;;;13.73;4.93;;;;;;;;;;6305040;22;20019;-92
2022/12/02 09:07:15;;;;;;;13.77;5.25;;;;;;;;;;6332863;22;20011;-91
2022/12/02 09:09:45;;;;;;;12.65;5.32;;;;;;;;;;6332776;22;20002;-90
2022/12/02 09:12:10;;;;;;;12.82;4.65;;;;;;;;;;6304756;22;20003;-92
2022/12/02 09:14:38;;;;;;;12.65;4.15;;;;;;;;;;6306511;22;20007;-92
2022/12/02 09:17:04;;;;;;;12.77;4.45;;;;;;;;;;6306872;22;20003;-89
2022/12/02 09:19:32;;;;;;;14.60;3.88;;;;;;;;;;6333085;22;20010;-92
2022/12/02 09:22:15;;;;;;;14.98;4.25;;;;;;;;;;6333183;22;20014;-91
2022/12/02 09:24:41;;;;;;;13.27;4.38;;;;;;;;;;6305320;22;20038;-91
2022/12/02 09:27:08;;;;;;;13.00;4.07;;;;;;;;;;6303914;22;20081;-90
2022/12/02 09:29:33;;;;;;;12.68;4.38;;;;;;;;;;6305747;22;20013;-90
2022/12/02 09:32:08;;;;;;;13.65;5.00;;;;;;;;;;6305034;22;20006;-91
2022/12/02 09:34:39;;;;;;;11.18;4.07;;;;;;;;;;6304675;22;19999;-91
2022/12/02 09:37:08;;;;;;;10.68;3.78;;;;;;;;;;6304676;22;20093;-91
2022/12/02 09:39:33;;;;;;;11.77;4.13;;;;;;;;;;6330633;22;20002;-91
2022/12/02 09:42:05;;;;;;;11.80;5.10;;;;;;;;;;6331240;22;20545;-91
2022/12/02 09:44:30;;;;;;;11.15;4.05;;;;;;;;;;6332877;22;20006;-91
2022/12/02 09:47:04;;;;;;;10.95;3.90;;;;;;;;;;6304887;22;20019;-92
2022/12/02 09:49:31;;;;;;;11.73;4.38;;;;;;;;;;6306255;22;20158;-92
2022/12/02 09:51:58;;;;;;;13.95;5.00;;;;;;;;;;6305047;22;20077;-91
2022/12/02 09:54:29;;;;;;;12.77;4.70;;;;;;;;;;6306126;22;20078;-91
2022/12/02 09:56:55;;;;;;;11.10;4.32;;;;;;;;;;6305608;22;20002;-92
2022/12/02 09:59:23;;;;;;;11.27;4.82;;;;;;;;;;6306171;22;20003;-92
2022/12/02 10:01:49;;;;;;;13.40;4.72;;;;;;;;;;6306600;22;20010;-92
2022/12/02 10:04:20;;;;;;;14.32;5.38;;;;;;;;;;6305832;22;20017;-91
2022/12/02 10:06:56;;;;;;;12.25;5.43;;;;;;;;;;6333244;22;20011;-92
2022/12/02 10:09:31;;;;;;;11.77;4.78;;;;;;;;;;6306203;22;20009;-92
2022/12/02 10:11:56;;;;;;;13.63;4.97;;;;;;;;;;6304620;22;20436;-92
2022/12/02 10:14:24;;;;;;;12.30;5.00;;;;;;;;;;6305570;22;20056;-91
2022/12/02 10:16:59;;;;;;;25.30;10.23;;;;;;;;;;6330482;22;20002;-92
2022/12/02 10:19:25;;;;;;;30.40;12.48;;;;;;;;;;6305795;22;20033;-92
2022/12/02 10:21:57;;;;;;;28.45;12.95;;;;;;;;;;6306493;22;20014;-92
2022/12/02 10:24:34;;;;;;;19.08;8.85;;;;;;;;;;6333537;22;20014;-94
2022/12/02 10:27:01;;;;;;;16.38;7.25;;;;;;;;;;6332447;22;20715;-91
2022/12/02 10:29:34;;;;;;;15.93;6.57;;;;;;;;;;6304521;22;20102;-91
2022/12/02 10:32:18;;;;;;;17.00;7.20;;;;;;;;;;6305275;22;20003;-92
2022/12/02 10:34:45;;;;;;;16.27;6.72;;;;;;;;;;6305660;22;20331;-92
2022/12/02 10:37:31;;;;;;;18.48;7.22;;;;;;;;;;6306113;22;20399;-92
2022/12/02 10:40:20;;;;;;;18.05;6.25;;;;;;;;;;6331406;22;20018;-91
2022/12/02 10:42:45;;;;;;;16.33;6.22;;;;;;;;;;6305009;22;20285;-91
2022/12/02 10:45:14;;;;;;;17.58;6.85;;;;;;;;;;6306913;22;20013;-91
2022/12/02 10:47:53;;;;;;;17.30;6.20;;;;;;;;;;6306564;22;20003;-92
2022/12/02 10:50:22;;;;;;;15.55;6.47;;;;;;;;;;6305964;22;20089;-91
2022/12/02 10:52:53;;;;;;;14.68;6.55;;;;;;;;;;6306416;22;20041;-92
2022/12/02 10:55:25;;;;;;;17.13;6.72;;;;;;;;;;6305669;22;20058;-92
2022/12/02 10:57:59;;;;;;;16.65;7.03;;;;;;;;;;6306597;22;20408;-92
2022/12/02 11:00:25;;;;;;;16.05;6.88;;;;;;;;;;6306770;22;20305;-92
2022/12/02 11:02:55;;;;;;;16.33;6.57;;;;;;;;;;6305401;22;20006;-92
2022/12/02 11:05:26;;;;;;;18.20;6.85;;;;;;;;;;6334233;22;20001;-93
2022/12/02 11:07:54;;;;;;;17.88;6.43;;;;;;;;;;6333250;22;19995;-93
2022/12/02 11:10:26;;;;;;;19.15;7.65;;;;;;;;;;6306262;22;20010;-93
2022/12/02 11:13:07;;;;;;;17.38;7.07;;;;;;;;;;6307495;22;20052;-93
2022/12/02 11:15:45;;;;;;;18.40;7.68;;;;;;;;;;6307301;22;20398;-93
2022/12/02 11:18:29;;;;;;;18.95;6.95;;;;;;;;;;6307516;22;20006;-92
2022/12/02 11:21:01;;;;;;;19.42;7.22;;;;;;;;;;6304695;22;20003;-91
2022/12/02 11:23:29;;;;;;;18.75;7.75;;;;;;;;;;6304533;22;20007;-91
2022/12/02 11:25:59;;;;;;;20.10;7.10;;;;;;;;;;6304610;22;20511;-91
2022/12/02 11:28:27;;;;;;;20.83;6.95;;;;;;;;;;6303679;22;20014;-91
2022/12/02 11:31:08;;;;;;;19.65;7.75;;;;;;;;;;6303096;22;20002;-89
2022/12/02 11:33:42;;;;;;;18.70;6.57;;;;;;;;;;6302617;22;20051;-91
2022/12/02 11:36:12;;;;;;;19.23;7.10;;;;;;;;;;6301840;22;20377;-94
2022/12/02 11:38:44;;;;;;;22.10;7.43;;;;;;;;;;6303542;22;20541;-91
2022/12/02 11:41:12;;;;;;;19.90;7.10;;;;;;;;;;6303250;22;20444;-91
2022/12/02 11:44:04;;;;;;;23.25;8.23;;;;;;;;;;6303692;22;20427;-92
2022/12/02 11:46:46;;;;;;;20.27;7.70;;;;;;;;;;6332461;22;20098;-91
2022/12/02 11:49:30;;;;;;;23.75;8.38;;;;;;;;;;6303993;22;20120;-91
2022/12/02 11:52:04;;;;;;;20.80;7.30;;;;;;;;;;6302884;22;20010;-92
2022/12/02 11:54:38;;;;;;;20.33;6.97;;;;;;;;;;6304389;22;20002;-91
2022/12/02 11:57:16;;;;;;;;;;;;;;;;;;;;;
2022/12/02 11:59:43;;;;;;;20.00;6.93;;;;;;;;;;6326913;22;20086;-91
2022/12/02 12:02:18;;;;;;;18.30;7.43;;;;;;;;;;6331123;22;20017;-91
2022/12/02 12:05:05;;;;;;;18.42;7.03;;;;;;;;;;6330525;22;20018;-92
2022/12/02 12:07:47;;;;;;;18.92;6.18;;;;;;;;;;6299825;22;20068;-91
2022/12/02 12:10:25;;;;;;;19.98;6.97;;;;;;;;;;6303022;22;20101;-91
2022/12/02 12:13:12;;;;;;;17.65;6.63;;;;;;;;;;6303667;22;20003;-92
2022/12/02 12:15:47;;;;;;;18.50;6.82;;;;;;;;;;6303111;22;20007;-92
2022/12/02 12:18:34;;;;;;;18.17;7.47;;;;;;;;;;6304625;22;20034;-92
2022/12/02 12:20:59;;;;;;;20.02;7.68;;;;;;;;;;6330038;22;20032;-91
2022/12/02 12:23:31;;;;;;;21.48;8.20;;;;;;;;;;6304691;22;20003;-91
2022/12/02 12:25:57;;;;;;;19.73;8.70;;;;;;;;;;6303518;22;20025;-90
2022/12/02 12:28:26;;;;;;;21.40;8.82;;;;;;;;;;6331809;22;19995;-90
2022/12/02 12:30:54;;;;;;;21.58;9.02;;;;;;;;;;6303242;22;20028;-90
2022/12/02 12:33:26;;;;;;;23.85;9.57;;;;;;;;;;6331758;22;19999;-91
2022/12/02 12:35:53;;;;;;;22.10;9.45;;;;;;;;;;6303251;22;20438;-90
2022/12/02 12:38:28;;;;;;;22.55;8.88;;;;;;;;;;6303301;22;20019;-91
2022/12/02 12:40:54;;;;;;;23.63;9.18;;;;;;;;;;6331458;22;20010;-90
2022/12/02 12:43:22;;;;;;;19.80;8.38;;;;;;;;;;6332077;22;20079;-91
2022/12/02 12:45:54;;;;;;;19.45;8.43;;;;;;;;;;6304676;22;20010;-91
2022/12/02 12:48:19;;;;;;;21.85;8.27;;;;;;;;;;6304444;22;20018;-90
2022/12/02 12:50:44;;;;;;;23.98;9.88;;;;;;;;;;6303426;22;20011;-90
2022/12/02 12:53:10;;;;;;;24.20;9.75;;;;;;;;;;6303408;22;20641;-91
2022/12/02 12:55:35;;;;;;;25.02;9.60;;;;;;;;;;6303918;22;20038;-90
2022/12/02 12:58:01;;;;;;;22.10;8.65;;;;;;;;;;6304376;22;20018;-90
2022/12/02 13:00:26;;;;;;;24.98;9.77;;;;;;;;;;6304180;22;20349;-90
2022/12/02 13:02:51;;;;;;;24.80;9.18;;;;;;;;;;6304304;22;20507;-90
2022/12/02 13:05:17;;;;;;;22.98;9.48;;;;;;;;;;6302107;22;20407;-90
2022/12/02 13:07:42;;;;;;;23.92;9.00;;;;;;;;;;6301379;22;20010;-91
2022/12/02 13:10:08;;;;;;;25.17;8.98;;;;;;;;;;6302006;22;20380;-90
2022/12/02 13:12:36;;;;;;;24.67;9.90;;;;;;;;;;6331086;22;20006;-91
2022/12/02 13:15:02;;;;;;;24.15;10.02;;;;;;;;;;6303896;22;19999;-91
2022/12/02 13:17:27;;;;;;;26.05;10.00;;;;;;;;;;6304132;22;20084;-90
2022/12/02 13:19:52;;;;;;;22.87;9.73;;;;;;;;;;6330994;22;20029;-91
2022/12/02 13:22:18;;;;;;;20.88;9.30;;;;;;;;;;6332735;22;20238;-91
2022/12/02 13:24:43;;;;;;;24.00;10.10;;;;;;;;;;6305291;22;20420;-90
2022/12/02 13:27:09;;;;;;;27.70;10.38;;;;;;;;;;6304520;22;21125;-90
2022/12/02 13:29:38;;;;;;;24.90;9.63;;;;;;;;;;6303914;22;20007;-91
2022/12/02 13:32:03;;;;;;;25.05;9.98;;;;;;;;;;6303796;22;20686;-90
2022/12/02 13:34:31;;;;;;;23.70;10.27;;;;;;;;;;6331043;22;20047;-90
2022/12/02 13:36:56;;;;;;;23.70;10.40;;;;;;;;;;6334312;22;20048;-91
2022/12/02 13:55:13;;;;;;;34.97;13.13;;;;;;;;;;6320974;22;20065;-94
2022/12/02 13:57:45;;;;;;;28.85;11.68;;;;;;;;;;6281191;22;20094;-95
2022/12/02 14:00:29;;;;;;;28.98;12.25;;;;;;;;;;6282288;22;20042;-95
2022/12/02 14:15:55;;;;;;;26.35;11.02;;;;;;;;;;6280348;22;20050;31
2022/12/02 14:21:16;;;;;;;26.17;11.75;;;;;;;;;;6267600;22;20027;-96
2022/12/02 14:52:19;;;;;;;36.75;12.43;;;;;;;;;;6269502;22;20113;-93
2022/12/02 14:54:45;;;;;;;30.17;11.27;;;;;;;;;;6274147;22;20022;-91
2022/12/02 14:57:14;;;;;;;35.15;12.73;;;;;;;;;;6299912;22;20008;-91
2022/12/02 14:59:46;;;;;;;32.72;12.07;;;;;;;;;;6271570;22;20017;-93
2022/12/02 15:02:13;;;;;;;33.03;12.07;;;;;;;;;;6274300;22;20052;-92
2022/12/02 15:04:48;;;;;;;31.77;12.30;;;;;;;;;;6275200;22;20007;-92
2022/12/02 15:07:13;;;;;;;31.98;11.93;;;;;;;;;;6274899;22;20014;-92
2022/12/02 15:09:41;;;;;;;37.22;13.60;;;;;;;;;;6275525;22;20067;-92
2022/12/02 15:12:10;;;;;;;31.35;11.77;;;;;;;;;;6274071;22;20027;-93
2022/12/02 15:14:57;;;;;;;35.30;12.77;;;;;;;;;;6273706;22;20007;-92
2022/12/02 15:17:56;;;;;;;34.45;11.80;;;;;;;;;;6275319;22;20006;-92
2022/12/02 15:20:20;;;;;;;33.40;12.25;;;;;;;;;;6299705;22;20010;-92
2022/12/02 15:22:48;;;;;;;32.47;10.93;;;;;;;;;;6294118;22;20031;-93
2022/12/02 15:25:16;;;;;;;42.90;15.35;;;;;;;;;;6261819;22;20003;-92
2022/12/02 15:27:43;;;;;;;50.88;19.05;;;;;;;;;;6300108;22;20320;-93
2022/12/02 15:30:17;;;;;;;45.80;19.17;;;;;;;;;;6274949;22;20011;-93
2022/12/02 15:32:44;;;;;;;48.28;17.98;;;;;;;;;;6298082;22;20011;-92
2022/12/02 15:35:10;;;;;;;51.17;19.70;;;;;;;;;;6301611;22;20098;-93
2022/12/02 15:37:35;;;;;;;49.88;17.83;;;;;;;;;;6302966;22;20022;-92
2022/12/02 15:40:04;;;;;;;37.33;14.85;;;;;;;;;;6301621;22;20030;-91
2022/12/02 15:42:32;;;;;;;37.47;15.77;;;;;;;;;;6298662;22;20094;-92
2022/12/02 15:44:58;;;;;;;37.75;13.88;;;;;;;;;;6275020;22;20046;-93
2022/12/02 15:47:26;;;;;;;35.13;12.80;;;;;;;;;;6301096;22;20039;-90
2022/12/02 15:49:58;;;;;;;36.20;13.32;;;;;;;;;;6300188;22;20014;-91
2022/12/02 15:52:23;;;;;;;37.63;13.43;;;;;;;;;;6287245;22;20763;-91
2022/12/02 15:54:50;;;;;;;38.00;13.40;;;;;;;;;;6303411;22;19999;-91
2022/12/02 15:57:17;;;;;;;41.13;14.95;;;;;;;;;;6274599;22;20015;-91
2022/12/02 15:59:42;;;;;;;44.35;14.80;;;;;;;;;;6276317;22;20011;-91